Leonardo Soares

Olheiro - Parana
19 Ago 2027
Quinta-feira
Processo

Personalidade

Adaptabilidade (15) Ambição (19) Controvérsia (14) Lealdade (5) Pressão (9) Profissionalismo (1) Espírito Esportivo (8) Temperamento (3)

Perfil

Estilo de Treinamento Democrático
Licença Continental A
Determinação 3
Gestão de Pessoas 7
Motivação 5
Disciplina 5
Satisfação no Trabalho
84%
Fadiga
0%
Função Olheiro
Salário 18.8K p/s
Contrato 14.03.2030

Desempenho

Comportamento Bom
Eficácia do Treinamento
29%
Desenvolvimento do Jogador
40%
Prevenção de Lesões
45%
Implementação Tática
50%

Eventos Recentes

Participou de uma reunião de recrutamento 7d atrás
Participou de uma reunião de recrutamento 14d atrás
Participou de uma reunião de recrutamento 21d atrás
Participou de uma reunião de recrutamento 28d atrás
Participou de uma reunião de recrutamento 35d atrás
Participou de uma reunião de recrutamento 42d atrás
Participou de uma reunião de recrutamento 49d atrás
Participou de uma reunião de recrutamento 56d atrás

Monitorando agora

290
Jogador Clube Status Habilidade Confiança Observado Última observação Último voto
Daniel Kyerewaa Reading Ativo 112 / 105 40% 3 31.05.2027 -
Archie Collins Peterborough United Ativo 115 / 119 40% 3 31.05.2027 -
Jayden Sweeney Grimsby Town Ativo 112 / 91 40% 2 30.05.2027 -
Nicolas Madsen Queens Park Rangers Ativo 121 / 121 40% 1 30.05.2027 -
Gonçalo Oliveira Benfica Ativo 101 / 105 40% 1 30.05.2027 -
Edoardo Bove Watford Ativo 132 / 143 40% 1 30.05.2027 -
Lewis Bate Stockport County Ativo 131 / 129 40% 6 29.05.2027 -
Georgie Gent Barnsley Ativo 103 / 123 40% 5 29.05.2027 -
Ross McCrorie Bristol City Ativo 119 / 129 40% 2 29.05.2027 -
Bobby Thomas Coventry City Ativo 142 / 134 40% 2 29.05.2027 -
Bosun Lawal Stoke City Ativo 137 / 124 40% 5 28.05.2027 -
Callum Doyle Wrexham Ativo 128 / 142 40% 2 28.05.2027 -
Ethan Pye Stockport County Ativo 117 / 116 40% 2 28.05.2027 -
Emanuele Valeri Parma Ativo 145 / 125 40% 1 28.05.2027 -
Lewis O'Brien Wrexham Ativo 119 / 136 40% 1 28.05.2027 -
Joel Bagan Cardiff City Ativo 121 / 104 40% 1 27.05.2027 -
Andrea Carboni Monza Ativo 137 / 119 40% 1 27.05.2027 -
Kwame Poku Queens Park Rangers Ativo 133 / 117 40% 5 26.05.2027 -
Bertrand Traoré Sunderland Ativo 125 / 134 40% 2 26.05.2027 -
James Dornelly Peterborough United Ativo 109 / 113 40% 1 26.05.2027 -
Jacques Ekomié Wrexham Ativo 121 / 128 40% 2 25.05.2027 -
Lamine Guèye Barrow AFC Ativo 121 / 110 40% 1 24.05.2027 -
Alex Lowry Wycombe Wanderers Ativo 113 / 122 40% 1 24.05.2027 -
David Turnbull Cardiff City Ativo 118 / 107 40% 2 23.05.2027 -
Isaiah Jones Luton Town Ativo 122 / 119 40% 1 23.05.2027 -
Kristoffer Lund Birmingham Ativo 121 / 118 40% 3 22.05.2027 -
Jean-Luc Dompé Konyaspor Ativo 120 / 136 40% 1 22.05.2027 -
Jack Fitzwater Exeter City Ativo 101 / 92 40% 1 22.05.2027 -
Idris El Mizouni Leyton Orient Ativo 111 / 107 40% 1 22.05.2027 -
Tyrese Campbell Sheffield United Ativo 124 / 114 40% 1 20.05.2027 -
Juan Mosquera Sheffield Wednesday Ativo 125 / 128 40% 1 20.05.2027 -
Atsuki Ito Bolton Wanderers Ativo 115 / 113 40% 3 19.05.2027 -
Bali Mumba Huddersfield Town Ativo 126 / 125 40% 2 19.05.2027 -
Luke McNally Bristol City Ativo 121 / 126 40% 2 19.05.2027 -
Matt Smith Newport County Ativo 95 / 98 40% 1 19.05.2027 -
Japhet Tanganga Sheffield United Ativo 141 / 130 40% 3 18.05.2027 -
Nor Maviram Barnsley Ativo 110 / 111 40% 1 18.05.2027 -
Kane Wilson Milton Keynes Dons Ativo 120 / 106 40% 2 17.05.2027 -
Dennis Cirkin Queens Park Rangers Ativo 137 / 116 40% 2 17.05.2027 -
Saša Lukić Ipswich Town Ativo 146 / 137 40% 1 17.05.2027 -
Isaac Kyereh Liberty Professionals Ativo 105 / 122 40% 1 16.05.2027 -
Christos Mouzakitis Hull City Ativo 139 / 137 40% 2 14.05.2027 -
Darlin Yongwa Norwich City Ativo 130 / 136 40% 2 14.05.2027 -
Nathan Moriah-Welsh Mansfield Town Ativo 106 / 103 40% 1 14.05.2027 -
George Byers Port Vale Ativo 102 / 113 40% 1 13.05.2027 -
Matteo Francesconi Cesena Ativo 123 / 118 40% 1 13.05.2027 -
Mattia Viti Sampdoria Ativo 130 / 126 40% 1 13.05.2027 -
Caolan Boyd-Munce Wycombe Wanderers Ativo 128 / 129 40% 2 12.05.2027 -
Harry Clarke Preston Ativo 134 / 124 40% 2 12.05.2027 -
Tiago Freitas Benfica Ativo 109 / 108 40% 2 11.05.2027 -
Josh Edwards Charlton Athletic Ativo 112 / 125 40% 2 11.05.2027 -
Will Fish Cardiff City Ativo 119 / 133 40% 2 11.05.2027 -
Kyle John Port Vale Ativo 100 / 113 40% 1 11.05.2027 -
Dylan Levitt Leyton Orient Ativo 123 / 114 40% 1 09.05.2027 -
Richard Koné Queens Park Rangers Ativo 124 / 124 40% 1 09.05.2027 -
James Morris Leyton Orient Ativo 122 / 109 40% 1 09.05.2027 -
Jay McGrath Doncaster Rovers Ativo 107 / 113 40% 1 09.05.2027 -
Radinio Balker Huddersfield Town Ativo 121 / 120 40% 1 08.05.2027 -
Ilario Monterisi Frosinone Ativo 137 / 119 40% 1 08.05.2027 Mais informações
Chris Mepham West Bromwich Albion Ativo 127 / 134 40% 2 06.05.2027 -
Robbie McKenzie Gillingham Ativo 97 / 93 40% 1 06.05.2027 -
Luca Connell Barnsley Ativo 117 / 111 40% 1 06.05.2027 -
André Miranda Porto Ativo 90 / 115 40% 1 05.05.2027 -
Ianis Hagi Alanyaspor Ativo 129 / 120 40% 1 05.05.2027 -
Tyreece Campbell Charlton Athletic Ativo 115 / 131 40% 1 04.05.2027 -
Harry Leonard Peterborough United Ativo 103 / 116 40% 1 03.05.2027 -
Flynn Downes Southampton Ativo 130 / 141 40% 1 02.05.2027 -
Macauley Southam-Hales Bristol Rovers Ativo 102 / 96 40% 1 29.04.2027 -
Ryan Wintle Milton Keynes Dons Ativo 112 / 108 40% 1 29.04.2027 -
Alessandro Sersanti Modena Ativo 132 / 129 40% 1 29.04.2027 -
Zak Swanson Bradford City Ativo 114 / 126 40% 3 28.04.2027 -
Kayne Ramsay Charlton Athletic Ativo 117 / 125 40% 1 28.04.2027 -
Marcus Harness Huddersfield Town Ativo 99 / 100 40% 1 28.04.2027 -
Marc Bola Watford Ativo 119 / 127 40% 1 26.04.2027 -
Alfie Doughty Millwall Ativo 120 / 137 40% 1 26.04.2027 -
Tiago Ribeiro Oliveirense Ativo 105 / 115 40% 3 24.04.2027 -
Martim Cunha Porto Ativo 108 / 96 40% 2 24.04.2027 -
Luís Esteves Atlas Ativo 132 / 122 40% 7 23.04.2027 -
Leandro Dias Pacos de Ferreira Ativo 101 / 107 40% 2 23.04.2027 -
Rémy Vita Tondela Ativo 120 / 124 40% 5 21.04.2027 -
Teden Mengi Luton Town Ativo 124 / 112 40% 5 21.04.2027 -
Pedro Ferreira Penafiel Ativo 116 / 115 40% 2 21.04.2027 -
Jose Fontán Arouca Ativo 135 / 133 40% 5 20.04.2027 -
Arnau Casas Torreense Ativo 120 / 119 40% 1 20.04.2027 -
Ilias Chair Queens Park Rangers Ativo 136 / 135 40% 2 19.04.2027 -
Robinho Académico de Viseu Ativo 104 / 99 40% 5 19.04.2027 -
Marc Baró Leiria Ativo 107 / 109 40% 5 19.04.2027 -
Pedro Pelágio Chaves Ativo 103 / 99 40% 1 19.04.2027 -
Joe Tomlinson Milton Keynes Dons Ativo 97 / 103 40% 1 19.04.2027 -
Gonçalo Cardoso Pacos de Ferreira Ativo 109 / 115 40% 1 19.04.2027 -
Figueiredo Alverca Ativo 133 / 115 40% 1 19.04.2027 -
Rodrigo Pinheiro Famalicao Ativo 129 / 124 40% 7 17.04.2027 -
Facundo Cáseres Gil Vicente Ativo 127 / 130 40% 6 17.04.2027 -
Eduardo Felicíssimo Sporting CP Ativo 110 / 114 40% 1 17.04.2027 -
Juan María Alcedo Torreense Ativo 122 / 121 40% 6 16.04.2027 -
Mathias De Amorim Famalicao Ativo 140 / 120 40% 4 16.04.2027 -
Di'Shon Bernard Sheffield Wednesday Ativo 121 / 111 40% 2 16.04.2027 -
Adalberto Carrasquilla Pumas UNAM Ativo 128 / 138 40% 2 15.04.2027 -
Toni Tamarit Alverca Ativo 107 / 131 40% 3 15.04.2027 -
Marvin Elimbi Gil Vicente Ativo 130 / 118 40% 4 15.04.2027 -
Léo Teixeira Felgueiras Ativo 101 / 99 40% 3 15.04.2027 -
Giorgi Chakvetadze Watford Ativo 130 / 119 40% 2 15.04.2027 -
Rodrigo Ramos Moreirense Ativo 125 / 116 40% 1 15.04.2027 -
Gianluca Prestianni Benfica Ativo 147 / 136 40% 1 14.04.2027 -
Andre Brooks Sheffield United Ativo 137 / 136 40% 1 14.04.2027 -
Francisco Moura Lusitânia Lourosa Ativo 138 / 128 40% 3 12.04.2027 -
Francisco Petrasso Rio Ave Ativo 126 / 130 40% 2 12.04.2027 -
Abdu Conté Casa Pia Ativo 129 / 121 40% 1 12.04.2027 -
Andrei Coubiş Lincoln City Ativo 105 / 112 40% 1 12.04.2027 -
Tiago Esgaio Arouca Ativo 124 / 119 40% 9 11.04.2027 -
Daniel Rivas AVS Ativo 114 / 111 40% 2 11.04.2027 -
Brayan Medina Tondela Ativo 122 / 110 40% 3 11.04.2027 -
João Teixeira Porto Ativo 102 / 123 40% 1 11.04.2027 -
Pedro Amaral Rio Ave Ativo 129 / 124 40% 2 10.04.2027 -
Liziero Nacional Ativo 132 / 133 40% 1 10.04.2027 -
Manu Pozo Torreense Ativo 114 / 123 40% 5 09.04.2027 -
Cristian Ferreira Académico de Viseu Ativo 126 / 116 40% 3 09.04.2027 -
Weverson Gil Vicente Ativo 108 / 126 40% 1 09.04.2027 -
Javi Sánchez Arouca Ativo 129 / 126 40% 4 08.04.2027 -
Rafa Soares Estrela da Amadora Ativo 115 / 108 40% 3 08.04.2027 -
Marios Vrousai Rio Ave Ativo 118 / 125 40% 6 07.04.2027 -
Vinícius Lopes Santa Clara Ativo 123 / 108 40% 4 07.04.2027 -
Tidjany Touré Gil Vicente Ativo 124 / 118 40% 2 07.04.2027 -
Lenny Vallier Nacional Ativo 117 / 112 40% 1 07.04.2027 -
Ethan Williams Peterborough United Ativo 108 / 129 40% 1 07.04.2027 -
Brian De Keersmaecker Oxford United Ativo 118 / 114 40% 1 06.04.2027 -
MT Santa Clara Ativo 122 / 116 40% 1 06.04.2027 -
Rafael Barbosa Feirense Ativo 121 / 118 40% 3 03.04.2027 -
Makan Aïko Tondela Ativo 114 / 118 40% 5 03.04.2027 -
Femi Seriki Sheffield United Ativo 124 / 140 40% 1 03.04.2027 -
Aarón Mejía Tijuana Ativo 132 / 134 40% 1 03.04.2027 -
Rafik Guitane Estoril Praia Ativo 130 / 129 40% 1 02.04.2027 -
Dinis Pinto Moreirense Ativo 130 / 116 40% 6 01.04.2027 -
Lincoln Alverca Ativo 122 / 137 40% 3 29.03.2027 -
Cian Ashford Cardiff City Ativo 123 / 118 40% 1 27.03.2027 -
Pau Víctor AVS Ativo 132 / 128 40% 2 26.03.2027 -
Derensili Sanches Fernandes Huddersfield Town Ativo 131 / 123 40% 2 24.03.2027 -
Brenner Santa Clara Ativo 127 / 122 40% 2 24.03.2027 -
Tamás Szűcs Famalicao Ativo 115 / 127 40% 1 24.03.2027 -
Nabil Touaizi Alverca Ativo 124 / 120 40% 10 23.03.2027 -
Leandro Martins Benfica Ativo 98 / 100 40% 2 23.03.2027 -
Genaro Leiria Ativo 113 / 103 40% 3 22.03.2027 -
Adonis Frías Atlas Ativo 134 / 129 40% 2 21.03.2027 -
Roni AVS Ativo 124 / 125 40% 5 21.03.2027 -
Salvador Blopá Casa Pia Ativo 119 / 120 40% 1 21.03.2027 -
Pedro Vite Pumas UNAM Ativo 122 / 122 40% 5 20.03.2027 -
Alfonso Trezza Arouca Ativo 129 / 115 40% 2 20.03.2027 -
Fernando Valenzuela Queretaro Ativo 135 / 133 40% 2 20.03.2027 -
Richard Martinez Veracruz Ativo 140 / 117 40% 1 20.03.2027 -
José Sampaio Vizela Ativo 105 / 124 40% 1 16.03.2027 -
Valery Académico de Viseu Ativo 132 / 125 40% 7 15.03.2027 -
Mateja Stjepanović Moreirense Ativo 114 / 129 40% 2 15.03.2027 -
Hugo Pérez Torreense Ativo 132 / 114 40% 2 14.03.2027 -
Cristian Calderón Pumas UNAM Ativo 133 / 124 40% 1 14.03.2027 -
Lucas Di Yorio Santos Laguna Ativo 125 / 120 40% 1 13.03.2027 -
Renato Sanches AVS Ativo 131 / 138 40% 9 11.03.2027 -
João Carvalho Estoril Praia Ativo 128 / 124 40% 4 11.03.2027 -
Matías Lacava Vizela Ativo 105 / 116 40% 1 10.03.2027 -
Finn van Breemen Famalicao Ativo 109 / 128 40% 3 09.03.2027 -
Othmane Maamma Watford Ativo 136 / 117 40% 2 09.03.2027 -
Josh Tymon Swansea City Ativo 132 / 134 40% 5 09.03.2027 -
Florentino Luís Ipswich Town Ativo 150 / 137 40% 1 09.03.2027 -
Matthew Sorinola Newport County Ativo 111 / 112 40% 1 07.03.2027 -
Brandon Aguilera Rio Ave Ativo 124 / 128 40% 6 03.03.2027 -
Ricard Sánchez Estoril Praia Ativo 122 / 128 40% 5 03.03.2027 -
Hamza Choudhury Leicester City Ativo 121 / 134 40% 1 03.03.2027 -
David Sousa Casa Pia Ativo 129 / 122 40% 3 02.03.2027 -
Anílson Pacos de Ferreira Ativo 109 / 95 40% 1 02.03.2027 -
Santi García Gil Vicente Ativo 131 / 145 40% 3 28.02.2027 -
Álvaro Martínez Moreirense Ativo 123 / 118 40% 2 27.02.2027 -
Miguel Reisinho Moreirense Ativo 114 / 118 40% 2 25.02.2027 -
Maga Leiria Ativo 109 / 101 40% 4 24.02.2027 -
Mohamed Aïdara Felgueiras Ativo 93 / 86 40% 1 24.02.2027 -
Rubén Duarte Legia Ativo 132 / 126 40% 1 23.02.2027 -
Afonso Peixoto Felgueiras Ativo 112 / 100 40% 1 23.02.2027 -
Jason Nainggolan Mouscron Ativo 115 / 126 40% 1 22.02.2027 -
Paulo Vitor Akron Ativo 105 / 127 40% 1 18.02.2027 -
Dinis Rodrigues Porto Ativo 97 / 99 40% 1 17.02.2027 -
Shaylon Mirassol Ativo 123 / 119 40% 1 16.02.2027 -
Ole Pohlmann Rio Ave Ativo 128 / 134 40% 1 15.02.2027 -
Dylan Collard Lusitânia Lourosa Ativo 122 / 129 40% 1 14.02.2027 -
Miguel Pires Vizela Ativo 116 / 98 40% 1 12.02.2027 -
Soufiane Messeguem Académico de Viseu Ativo 115 / 126 40% 1 11.02.2027 -
Rob Atkinson Bristol City Ativo 121 / 135 40% 1 11.02.2027 -
Carlos Gruezo Santos Laguna Ativo 139 / 115 40% 1 10.02.2027 -
Eduardo Dos Santos Veracruz Ativo 123 / 106 40% 1 10.02.2027 -
Jack Rudoni Coventry City Ativo 127 / 145 40% 1 08.02.2027 -
Ramiro Sordo Santos Laguna Ativo 120 / 117 40% 1 08.02.2027 -
Hugo Félix Tondela Ativo 113 / 109 40% 1 07.02.2027 -
Hany Mukhtar Spezia Ativo 128 / 125 40% 1 07.02.2027 -
Sebastián Córdova Pumas UNAM Ativo 137 / 130 40% 1 06.02.2027 -
René López Morelia Ativo 104 / 102 40% 1 03.02.2027 -
Felipe Silva Porto Ativo 100 / 100 40% 3 02.02.2027 -
Leonardo Realpe Famalicao Ativo 130 / 133 40% 3 01.02.2027 -
Francisco Ramos Pacos de Ferreira Ativo 105 / 96 40% 1 01.02.2027 -
Marcos Peña Famalicao Ativo 104 / 108 40% 1 29.01.2027 -
Federico Bicoro Slovan Liberec Ativo 108 / 98 40% 1 29.01.2027 -
Àlex Carbonell Penafiel Ativo 116 / 110 40% 1 25.01.2027 -
Pedro Bondo Famalicao Ativo 109 / 114 40% 3 24.01.2027 -
João Simões Sporting CP Ativo 130 / 151 40% 1 22.01.2027 -
Bernardo Schappo Estrela da Amadora Ativo 114 / 107 40% 2 20.01.2027 -
Miguel Campos Santa Clara Ativo 106 / 113 40% 1 19.01.2027 -
Matthew Targett Hull City Ativo 133 / 145 40% 1 18.01.2027 -
Javier Mena Portimonense Ativo 116 / 122 40% 1 18.01.2027 -
André Oliveira Porto Ativo 94 / 112 40% 1 17.01.2027 -
Lewis Gibson Preston Ativo 117 / 138 40% 1 16.01.2027 -
Rafael Brito Lusitânia Lourosa Ativo 120 / 114 40% 1 15.01.2027 -
João Muniz Sporting CP Ativo 129 / 107 40% 4 13.01.2027 -
Fernando Ceará Ativo 111 / 118 40% 1 13.01.2027 -
Gabi Pereira Felgueiras Ativo 100 / 93 40% 1 12.01.2027 -
Nobel Mendy Hull City Ativo 140 / 135 40% 1 12.01.2027 -
Álex Centelles Levski Ativo 128 / 134 40% 1 11.01.2027 -
Neto Moura Mirassol Ativo 128 / 115 40% 1 09.01.2027 -
Fernando Fonseca Leixões Ativo 103 / 116 40% 1 09.01.2027 -
Lucas Abascia Queretaro Ativo 128 / 132 40% 1 08.01.2027 -
Kazuya Onohara Oliveirense Ativo 95 / 119 40% 1 04.01.2027 -
Toby Collyer West Bromwich Albion Ativo 141 / 125 40% 1 22.12.2026 -
Richard Gonzalez Chamois Niortais Ativo 137 / 122 40% 1 14.12.2026 -
Roan Wilson Chaves Ativo 97 / 91 40% 1 14.12.2026 -
Mateo Flores Arouca Ativo 120 / 109 40% 1 01.12.2026 -
Alexander Bah Benfica Ativo 139 / 135 40% 3 28.11.2026 -
Welington Southampton Ativo 118 / 135 40% 1 28.11.2026 -
Reko Leiria Ativo 127 / 112 40% 1 27.11.2026 -
Juninho Pumas UNAM Ativo 144 / 138 40% 1 27.11.2026 -
Benny Feirense Ativo 108 / 120 40% 1 27.11.2026 -
Jhojan Julio Queretaro Ativo 124 / 130 40% 1 26.11.2026 -
Jason Knight Bristol City Ativo 126 / 139 40% 1 25.11.2026 -
Josh Wynder Benfica Ativo 102 / 100 40% 1 25.11.2026 -
Bruno Rodrigues Chaves Ativo 115 / 122 40% 2 23.11.2026 -
Lloyd Jones Charlton Athletic Ativo 123 / 122 40% 1 22.11.2026 -
Lukáš Červ Viktoria Plzen Ativo 135 / 131 40% 1 22.11.2026 -
Paulité Lusitânia Lourosa Ativo 104 / 108 40% 1 22.11.2026 -
Kiko Bondoso Moreirense Ativo 111 / 109 40% 1 22.11.2026 -
Caíque Gonçalves Vitória Ativo 115 / 111 40% 1 21.11.2026 -
Armando Lopes Felgueiras Ativo 108 / 98 40% 1 18.11.2026 -
Zé Carlos Gil Vicente Ativo 113 / 121 40% 2 17.11.2026 -
André Silva Tondela Ativo 121 / 126 40% 1 17.11.2026 -
Simo Maritimo Ativo 115 / 112 40% 1 17.11.2026 -
José Gomes Nacional Ativo 123 / 117 40% 2 16.11.2026 -
Ianis Stoica Estrela da Amadora Ativo 103 / 102 40% 1 16.11.2026 -
Luís Bastos Oliveirense Ativo 85 / 94 40% 1 16.11.2026 -
Diogo Spencer Alverca Ativo 113 / 112 40% 2 14.11.2026 -
Lee Hyun-Ju Arouca Ativo 122 / 111 40% 1 14.11.2026 -
Pablo Rosario Porto Ativo 148 / 133 40% 3 11.11.2026 Observar
Francisco González Metilli Belgrano Ativo 121 / 132 40% 1 11.11.2026 -
Juan Muñoz Leiria Ativo 137 / 115 40% 2 10.11.2026 -
Benjamin Kanurić SV Ried Ativo 112 / 123 40% 1 07.11.2026 -
Iker Benito Queretaro Ativo 129 / 119 40% 1 07.11.2026 -
Nahuel Banegas Tigre Ativo 120 / 115 40% 1 07.11.2026 -
Jair Silva Leiria Ativo 117 / 111 40% 3 05.11.2026 -
Daniel Júnior Nacional Ativo 118 / 120 40% 1 05.11.2026 -
Negueba Mirassol Ativo 129 / 126 40% 1 01.11.2026 -
Joaquín Gho Argentinos Juniors Ativo 131 / 115 40% 1 30.10.2026 -
Rúben Alves Penafiel Ativo 121 / 110 40% 1 29.10.2026 -
Lucas Soares Santa Clara Ativo 110 / 107 40% 1 29.10.2026 -
Gonçalo Moreira Benfica Ativo 108 / 127 40% 1 29.10.2026 -
Afonso Assis Moreirense Ativo 108 / 120 40% 1 29.10.2026 -
Tomás O'Connor Gimnasia y Esgrima Ativo 122 / 121 40% 1 26.10.2026 -
Matheus Bidu Corinthians Ativo 136 / 136 40% 1 25.10.2026 -
Pablo Ruan Nacional Ativo 112 / 123 40% 1 25.10.2026 -
Alan Lescano Argentinos Juniors Ativo 131 / 132 40% 1 23.10.2026 -
Matheuzinho Vitória Ativo 136 / 131 40% 1 22.10.2026 -
Jordan van der Gaag Leiria Ativo 118 / 113 40% 1 21.10.2026 -
Matías Fernández Independiente Rivadavia Ativo 131 / 125 40% 1 21.10.2026 -
Oussama Idrissi Pachuca Ativo 148 / 139 40% 2 20.10.2026 -
Raphael Guzzo Maritimo Ativo 129 / 124 40% 1 19.10.2026 -
Marcos Antonio Sport Recife Ativo 130 / 129 40% 1 17.10.2026 -
Álvaro Angulo Pumas UNAM Ativo 139 / 116 40% 1 14.10.2026 -
Miguel Sousa Leixões Ativo 108 / 115 40% 1 12.10.2026 -
Raniel Oliveirense Ativo 119 / 100 40% 1 10.10.2026 -
Sergio Bermejo Gil Vicente Ativo 111 / 121 40% 1 09.10.2026 -
Ryoya Morishita Blackburn Rovers Ativo 139 / 114 40% 1 09.10.2026 -
João Caiado Pacos de Ferreira Ativo 115 / 121 40% 1 09.10.2026 -
Bruno Méndez Toluca Ativo 138 / 131 40% 1 07.10.2026 -
Léo Gomes Sheffield Wednesday Ativo 120 / 109 40% 1 27.09.2026 -
Flávio Atletico Nacional Ativo 128 / 115 40% 1 27.09.2026 -
Demir Ege Tıknaz Braga Ativo 130 / 115 40% 1 12.09.2026 -
Xeka Estoril Praia Ativo 130 / 115 40% 1 12.09.2026 -
Rony Lopes Tondela Ativo 108 / 110 40% 1 11.09.2026 -
Naïs Djouahra Arouca Ativo 117 / 122 40% 1 11.09.2026 -
Morgan Guilavogui Real Salt Lake Ativo 126 / 129 40% 1 09.09.2026 -
Leonardo Borja La Equidad Ativo 141 / 146 40% 1 09.09.2026 -
Jesús Ricardo Angulo Toluca Ativo 132 / 142 40% 1 09.09.2026 -
Giorgos Liavas Rio Ave Ativo 126 / 121 40% 1 07.09.2026 -
Jalen Blesa Rio Ave Ativo 118 / 123 40% 1 07.09.2026 -
Murilo Souza Gil Vicente Ativo 128 / 128 40% 1 27.08.2026 -
Zé Leite Leixões Ativo 124 / 106 40% 1 26.08.2026 -
Jefferson Lerma Crystal Palace Ativo 150 / 150 40% 1 18.08.2026 -
Volnei Torreense Ativo 93 / 97 40% 1 17.08.2026 -
Guilherme Neiva AVS Ativo 94 / 98 40% 1 03.08.2026 -